Time;durP1;ratioP1;P1;durP2;ratioP2;P2;SDS_P1;SDS_P2;PMS_P1;PMS_P2;Temp;Humidity;BMP_temperature;BMP_pressure;BME280_temperature;BME280_humidity;BME280_pressure;Samples;Min_cycle;Max_cycle;Signal;HPM_P1;HPM_P2
2022/04/14 00:00:23;;;;;;;7.05;2.80;;;12.30;70.00;;;;;;5099789;28;20013;-48
2022/04/14 00:02:50;;;;;;;7.60;2.40;;;12.20;70.20;;;;;;5099508;28;20165;-50
2022/04/14 00:05:16;;;;;;;8.05;2.17;;;12.20;70.80;;;;;;5099847;28;20020;-49
2022/04/14 00:07:41;;;;;;;3.72;1.88;;;12.20;69.90;;;;;;5099751;28;20035;-49
2022/04/14 00:10:08;;;;;;;4.00;2.08;;;12.20;71.50;;;;;;5099706;28;20099;-48
2022/04/14 00:12:33;;;;;;;3.63;2.50;;;12.20;71.50;;;;;;5099667;28;20391;-50
2022/04/14 00:15:00;;;;;;;5.65;2.08;;;12.20;71.50;;;;;;5099499;28;20024;-48
2022/04/14 00:17:28;;;;;;;4.95;2.17;;;12.10;71.20;;;;;;5099204;28;20369;-50
2022/04/14 00:19:53;;;;;;;6.10;2.58;;;12.10;71.20;;;;;;5099516;28;20081;-49
2022/04/14 00:22:19;;;;;;;7.35;2.38;;;12.10;71.60;;;;;;5099297;28;20028;-50
2022/04/14 00:24:45;;;;;;;7.45;2.65;;;12.10;72.30;;;;;;5099515;28;20036;-48
2022/04/14 00:27:11;;;;;;;6.07;2.38;;;12.10;72.90;;;;;;5098991;28;20519;-50
2022/04/14 00:29:37;;;;;;;7.85;2.50;;;12.10;72.90;;;;;;5099392;28;20024;-49
2022/04/14 00:32:03;;;;;;;5.25;2.40;;;12.10;72.00;;;;;;5098641;28;20493;-51
2022/04/14 00:34:28;;;;;;;6.95;2.42;;;12.10;72.00;;;;;;5099434;28;20097;-49
2022/04/14 00:36:54;;;;;;;8.90;2.95;;;12.10;72.40;;;;;;5099276;28;20120;-47
2022/04/14 00:39:20;;;;;;;5.68;2.53;;;12.10;72.60;;;;;;5098904;28;20453;-49
2022/04/14 00:41:46;;;;;;;6.18;2.58;;;12.10;74.00;;;;;;5098958;28;20020;-49
2022/04/14 00:44:11;;;;;;;6.00;2.80;;;12.00;75.00;;;;;;5099068;28;20060;-48
2022/04/14 00:46:37;;;;;;;5.63;2.58;;;12.00;74.60;;;;;;5098968;28;20028;-49
2022/04/14 00:49:03;;;;;;;7.70;3.05;;;12.00;73.50;;;;;;5099041;28;20036;-52
2022/04/14 00:51:29;;;;;;;6.30;2.53;;;12.00;74.60;;;;;;5098765;28;20032;-50
2022/04/14 00:53:55;;;;;;;6.82;3.10;;;12.00;75.20;;;;;;5099001;28;20028;-49
2022/04/14 00:56:20;;;;;;;8.80;3.08;;;12.00;74.40;;;;;;5098860;28;20023;-50
2022/04/14 00:58:46;;;;;;;6.28;2.85;;;12.00;75.50;;;;;;5098879;28;20027;-48
2022/04/14 01:01:12;;;;;;;7.55;3.40;;;12.00;75.70;;;;;;5098685;28;20019;-48
2022/04/14 01:03:40;;;;;;;5.82;2.83;;;12.00;72.60;;;;;;5098794;28;20523;-48
2022/04/14 01:06:08;;;;;;;6.45;2.83;;;12.00;74.70;;;;;;5098657;28;20032;-48
2022/04/14 01:08:35;;;;;;;6.38;2.92;;;12.00;73.20;;;;;;5097222;28;20112;-48
2022/04/14 01:11:02;;;;;;;6.30;2.83;;;11.90;73.80;;;;;;5098611;28;20026;-51
2022/04/14 01:13:28;;;;;;;4.63;2.50;;;12.00;71.70;;;;;;5098328;28;20053;-48
2022/04/14 01:15:59;;;;;;;6.18;2.60;;;11.90;72.50;;;;;;5098510;28;20020;-48
2022/04/14 01:18:25;;;;;;;5.35;3.15;;;11.90;73.00;;;;;;5098477;28;20028;-48
2022/04/14 01:20:51;;;;;;;7.55;2.83;;;11.80;73.90;;;;;;5098274;28;20017;-51
2022/04/14 01:23:24;;;;;;;6.32;2.88;;;11.80;74.60;;;;;;5098501;28;20024;-49
2022/04/14 01:25:50;;;;;;;7.68;3.17;;;11.80;72.00;;;;;;5098016;28;20486;-50
2022/04/14 01:28:17;;;;;;;7.53;3.33;;;11.80;72.70;;;;;;5098155;28;20055;-49
2022/04/14 01:30:43;;;;;;;4.70;2.72;;;11.80;72.20;;;;;;5098229;28;20028;-49
2022/04/14 01:33:09;;;;;;;6.72;3.40;;;11.80;73.90;;;;;;5098436;28;20030;-48
2022/04/14 01:35:35;;;;;;;6.22;2.78;;;11.80;72.60;;;;;;5098276;28;20028;-49
2022/04/14 01:38:01;;;;;;;7.80;3.05;;;11.70;72.80;;;;;;5098025;28;20095;-48
2022/04/14 01:40:28;;;;;;;6.28;2.72;;;11.80;70.90;;;;;;5098159;28;20025;-47
2022/04/14 01:42:54;;;;;;;5.88;2.50;;;11.70;71.80;;;;;;5097857;28;20487;-50
2022/04/14 01:45:20;;;;;;;7.93;2.90;;;11.70;70.00;;;;;;5097877;28;20020;-49
2022/04/14 01:47:46;;;;;;;8.05;2.88;;;11.70;70.30;;;;;;5098272;28;20024;-48
2022/04/14 01:50:14;;;;;;;5.65;3.00;;;11.70;71.70;;;;;;5098024;28;20376;-51
2022/04/14 01:52:42;;;;;;;6.38;2.78;;;11.70;71.70;;;;;;5097731;28;20024;-50
2022/04/14 01:55:08;;;;;;;6.55;2.85;;;11.60;71.60;;;;;;5098221;28;20020;-47
2022/04/14 01:57:34;;;;;;;4.65;2.55;;;11.50;71.60;;;;;;5098156;28;20015;-47
2022/04/14 02:00:01;;;;;;;5.30;2.97;;;11.50;72.70;;;;;;5097611;28;20074;-48
2022/04/14 02:02:27;;;;;;;6.63;3.13;;;11.40;73.60;;;;;;5097633;28;20032;-50
2022/04/14 02:04:53;;;;;;;6.20;2.58;;;11.40;73.00;;;;;;5097556;28;20028;-49
2022/04/14 02:07:19;;;;;;;5.65;3.15;;;11.30;74.00;;;;;;5097642;28;20040;-50
2022/04/14 02:09:45;;;;;;;5.28;2.75;;;11.30;74.20;;;;;;5097691;28;20519;-51
2022/04/14 02:12:12;;;;;;;5.70;2.97;;;11.30;74.00;;;;;;5097664;28;20024;-50
2022/04/14 02:14:39;;;;;;;8.25;3.10;;;11.30;74.90;;;;;;5097652;28;20035;-49
2022/04/14 02:17:04;;;;;;;7.32;2.85;;;11.30;74.60;;;;;;5097497;28;20499;-50
2022/04/14 02:19:31;;;;;;;7.07;3.08;;;11.30;74.80;;;;;;5097683;28;20059;-48
2022/04/14 02:21:58;;;;;;;8.60;3.38;;;11.20;75.20;;;;;;5097764;28;20035;-49
2022/04/14 02:24:27;;;;;;;8.00;3.10;;;11.20;74.70;;;;;;5097359;28;20024;-48
2022/04/14 02:26:53;;;;;;;6.78;2.97;;;11.30;73.60;;;;;;5097194;28;20508;-49
2022/04/14 02:29:20;;;;;;;7.60;3.38;;;11.30;73.50;;;;;;5097558;28;20049;-51
2022/04/14 02:31:46;;;;;;;4.95;2.60;;;11.20;74.30;;;;;;5097273;28;20024;-50
2022/04/14 02:34:12;;;;;;;6.18;3.15;;;11.20;75.20;;;;;;5097411;28;20047;-48
2022/04/14 02:36:38;;;;;;;5.07;2.88;;;11.20;75.50;;;;;;5097713;28;20028;-49
2022/04/14 02:39:05;;;;;;;6.75;2.97;;;11.20;74.70;;;;;;5097517;28;20052;-48
2022/04/14 02:41:30;;;;;;;8.57;3.03;;;11.20;75.30;;;;;;5097344;28;20024;-50
2022/04/14 02:43:56;;;;;;;6.95;3.28;;;11.20;74.50;;;;;;5097428;28;20471;-49
2022/04/14 02:46:22;;;;;;;5.55;3.05;;;11.10;74.80;;;;;;5097368;28;20502;-49
2022/04/14 02:48:47;;;;;;;7.53;3.10;;;11.10;75.40;;;;;;5097349;28;20020;-48
2022/04/14 02:51:13;;;;;;;5.57;3.47;;;11.10;74.50;;;;;;5097435;28;20074;-49
2022/04/14 02:53:39;;;;;;;8.07;3.70;;;11.10;74.60;;;;;;5097052;28;20089;-52
2022/04/14 02:56:05;;;;;;;6.07;3.15;;;11.10;75.10;;;;;;5098884;28;20028;-49
2022/04/14 02:58:32;;;;;;;5.80;3.00;;;11.10;74.10;;;;;;5100772;28;20395;-52
2022/04/14 03:00:58;;;;;;;7.35;3.47;;;11.10;75.00;;;;;;5101137;28;20090;-50
2022/04/14 03:03:25;;;;;;;9.45;3.38;;;11.00;74.60;;;;;;5100765;28;20395;-47
2022/04/14 03:05:51;;;;;;;6.53;3.20;;;11.00;75.40;;;;;;5100761;28;20557;-50
2022/04/14 03:08:18;;;;;;;5.53;3.05;;;11.00;76.50;;;;;;5100842;28;20024;-47
2022/04/14 03:10:44;;;;;;;4.40;2.78;;;11.00;78.80;;;;;;5101154;28;20045;-50
2022/04/14 03:13:10;;;;;;;5.53;3.03;;;11.00;78.50;;;;;;5100675;28;20046;-50
2022/04/14 03:15:35;;;;;;;6.80;3.13;;;11.00;77.60;;;;;;5100681;28;20028;-50
2022/04/14 03:18:01;;;;;;;6.95;3.13;;;11.00;78.50;;;;;;5100635;28;20020;-49
2022/04/14 03:20:27;;;;;;;6.88;3.10;;;11.00;77.20;;;;;;5099229;28;20051;-49
2022/04/14 03:22:52;;;;;;;6.13;3.35;;;11.00;76.60;;;;;;5100761;28;20432;-49
2022/04/14 03:25:18;;;;;;;5.90;2.60;;;11.00;76.80;;;;;;5100382;28;20040;-49
2022/04/14 03:27:44;;;;;;;6.75;2.70;;;11.00;75.40;;;;;;5100090;28;20132;-51
2022/04/14 03:30:10;;;;;;;4.55;2.55;;;11.00;76.40;;;;;;5100292;28;20034;-48
2022/04/14 03:32:43;;;;;;;5.47;2.58;;;11.00;76.50;;;;;;5100374;28;20028;-50
2022/04/14 03:35:13;;;;;;;5.28;2.85;;;10.90;75.90;;;;;;5100258;28;20044;-51
2022/04/14 03:37:40;;;;;;;5.15;2.60;;;10.90;75.70;;;;;;5099891;28;20075;-50
2022/04/14 03:40:07;;;;;;;6.18;3.22;;;10.90;78.40;;;;;;5099629;28;20032;-49
2022/04/14 03:42:33;;;;;;;4.18;2.60;;;10.90;76.80;;;;;;5099997;28;20028;-48
2022/04/14 03:44:59;;;;;;;6.55;3.13;;;10.90;78.20;;;;;;5100310;28;20040;-51
2022/04/14 03:47:28;;;;;;;4.13;2.13;;;10.80;79.40;;;;;;5100083;28;20078;-48
2022/04/14 03:49:53;;;;;;;5.40;2.42;;;10.80;76.30;;;;;;5099953;28;20028;-50
2022/04/14 03:52:20;;;;;;;5.20;2.80;;;10.90;79.40;;;;;;5099920;28;20039;-52
2022/04/14 03:54:46;;;;;;;4.03;2.47;;;10.90;78.10;;;;;;5100079;28;20028;-49
2022/04/14 03:57:11;;;;;;;5.05;2.50;;;10.90;76.80;;;;;;5100032;28;20020;-48
2022/04/14 03:59:37;;;;;;;5.80;2.45;;;10.90;77.10;;;;;;5099899;28;20028;-49
2022/04/14 04:02:04;;;;;;;5.00;2.67;;;10.90;75.50;;;;;;5100271;28;20038;-50
2022/04/14 04:04:31;;;;;;;5.28;2.80;;;10.90;77.40;;;;;;5100003;28;20039;-49
2022/04/14 04:06:58;;;;;;;5.80;2.42;;;10.80;76.40;;;;;;5099533;28;20539;-49
2022/04/14 04:09:23;;;;;;;5.88;2.65;;;10.80;76.50;;;;;;5099700;28;20030;-55
2022/04/14 04:11:50;;;;;;;3.92;2.25;;;10.80;74.90;;;;;;5099383;28;20095;-52
2022/04/14 04:14:16;;;;;;;5.05;2.33;;;10.80;75.30;;;;;;5099521;28;20032;-47
2022/04/14 04:16:43;;;;;;;5.35;2.53;;;10.70;75.60;;;;;;5099749;28;20021;-48
2022/04/14 04:19:08;;;;;;;4.28;2.17;;;10.70;75.20;;;;;;5099416;28;20404;-48
2022/04/14 04:21:34;;;;;;;5.57;2.83;;;10.70;76.10;;;;;;5099794;28;20016;-50
2022/04/14 04:24:00;;;;;;;6.18;2.58;;;10.70;76.00;;;;;;5099594;28;20116;-47
2022/04/14 04:26:26;;;;;;;3.67;2.40;;;10.70;76.10;;;;;;5099090;28;20044;-51
2022/04/14 04:28:51;;;;;;;4.72;2.38;;;10.60;75.20;;;;;;5099593;28;20024;-48
2022/04/14 04:31:17;;;;;;;4.35;2.30;;;10.60;75.20;;;;;;5099336;28;20020;-49
2022/04/14 04:33:43;;;;;;;5.13;2.60;;;10.60;74.10;;;;;;5099140;28;20032;-49
2022/04/14 04:36:11;;;;;;;5.20;2.42;;;10.60;75.70;;;;;;5099001;28;20137;-50
2022/04/14 04:38:37;;;;;;;5.53;2.75;;;10.50;72.80;;;;;;5099523;28;20024;-50
2022/04/14 04:41:05;;;;;;;5.00;2.42;;;10.50;73.70;;;;;;5098817;28;20025;-48
2022/04/14 04:43:30;;;;;;;6.18;2.70;;;10.50;74.30;;;;;;5099249;28;20052;-48
2022/04/14 04:45:56;;;;;;;4.47;2.28;;;10.40;73.60;;;;;;5098981;28;20024;-49
2022/04/14 04:48:22;;;;;;;5.28;2.58;;;10.40;73.30;;;;;;5098967;28;20035;-48
2022/04/14 04:50:48;;;;;;;4.25;2.40;;;10.30;75.50;;;;;;5098919;28;20035;-49
2022/04/14 04:53:14;;;;;;;5.57;2.25;;;10.30;75.60;;;;;;5098808;28;20035;-48
2022/04/14 04:55:40;;;;;;;6.28;2.80;;;10.20;75.50;;;;;;5098991;28;20372;-51
2022/04/14 04:58:06;;;;;;;6.68;3.15;;;10.20;75.70;;;;;;5098706;28;20024;-50
2022/04/14 05:00:32;;;;;;;6.50;3.17;;;10.20;75.00;;;;;;5098722;28;20129;-51
2022/04/14 05:02:58;;;;;;;8.07;2.78;;;10.20;74.90;;;;;;5098573;28;20115;-49
2022/04/14 05:05:24;;;;;;;4.55;2.50;;;10.10;76.50;;;;;;5098600;28;20051;-49
2022/04/14 05:07:50;;;;;;;6.10;2.60;;;10.20;75.90;;;;;;5098740;28;20032;-49
2022/04/14 05:10:17;;;;;;;5.22;2.80;;;10.10;78.10;;;;;;5098732;28;20035;-51
2022/04/14 05:12:42;;;;;;;4.38;2.55;;;10.10;78.40;;;;;;5098363;28;20172;-48
2022/04/14 05:15:09;;;;;;;5.75;2.22;;;10.00;78.50;;;;;;5098465;28;20058;-48
2022/04/14 05:17:34;;;;;;;6.10;2.80;;;10.00;77.20;;;;;;5098372;28;20021;-49
2022/04/14 05:20:00;;;;;;;4.25;2.60;;;10.00;77.70;;;;;;5097943;28;20023;-48
2022/04/14 05:22:26;;;;;;;6.53;3.20;;;10.00;77.60;;;;;;5098951;28;20114;-49
2022/04/14 05:24:52;;;;;;;5.57;2.97;;;10.00;78.70;;;;;;5098248;28;20016;-48
2022/04/14 05:27:17;;;;;;;7.13;3.35;;;10.00;77.60;;;;;;5098066;28;20055;-48
2022/04/14 05:29:43;;;;;;;5.03;2.72;;;10.00;77.20;;;;;;5098321;28;20020;-48
2022/04/14 05:32:09;;;;;;;6.82;2.95;;;10.00;76.60;;;;;;5098260;28;20035;-49
2022/04/14 05:34:35;;;;;;;5.53;2.60;;;10.10;77.80;;;;;;5098267;28;20024;-50
2022/04/14 05:37:01;;;;;;;7.00;3.03;;;10.00;77.80;;;;;;5098499;28;20395;-50
2022/04/14 05:39:27;;;;;;;4.95;2.78;;;10.10;77.80;;;;;;5098061;28;20086;-48
2022/04/14 05:41:52;;;;;;;6.13;2.90;;;10.10;79.10;;;;;;5097931;28;20024;-50
2022/04/14 05:44:19;;;;;;;6.57;3.00;;;10.10;76.80;;;;;;5098005;28;20375;-48
2022/04/14 05:46:44;;;;;;;4.57;2.53;;;10.10;77.40;;;;;;5098003;28;20029;-47
2022/04/14 05:49:10;;;;;;;5.25;2.90;;;10.10;75.90;;;;;;5097842;28;20023;-48
2022/04/14 05:51:36;;;;;;;6.15;2.72;;;10.10;74.40;;;;;;5097802;28;20030;-48
2022/04/14 05:54:02;;;;;;;5.15;2.70;;;10.20;77.20;;;;;;5098023;28;20029;-47
2022/04/14 05:56:27;;;;;;;5.13;2.67;;;10.10;76.30;;;;;;5097770;28;20016;-49
2022/04/14 05:58:54;;;;;;;4.93;2.60;;;10.10;77.90;;;;;;5098133;28;20020;-49
2022/04/14 06:01:19;;;;;;;5.50;2.92;;;10.10;77.60;;;;;;5097734;28;20097;-51
2022/04/14 06:03:45;;;;;;;5.25;2.92;;;10.10;77.60;;;;;;5098021;28;20030;-52
2022/04/14 06:06:13;;;;;;;5.07;2.75;;;10.20;76.10;;;;;;5097883;28;20085;-49
2022/04/14 06:08:39;;;;;;;8.48;3.25;;;10.20;76.30;;;;;;5098364;28;20043;-52
2022/04/14 06:11:06;;;;;;;7.00;3.08;;;10.20;76.50;;;;;;5097577;28;20027;-50
2022/04/14 06:13:33;;;;;;;7.35;2.92;;;10.30;76.80;;;;;;5097264;28;20392;-48
2022/04/14 06:15:59;;;;;;;4.35;2.80;;;10.30;76.90;;;;;;5097672;28;20161;-50
2022/04/14 06:18:24;;;;;;;5.15;2.83;;;10.30;75.70;;;;;;5097612;28;20016;-48
2022/04/14 06:20:52;;;;;;;7.65;3.20;;;10.30;76.50;;;;;;5097491;28;20490;-48
2022/04/14 06:23:18;;;;;;;6.72;2.72;;;10.30;81.40;;;;;;5097284;28;20531;-48
2022/04/14 06:25:50;;;;;;;6.25;3.08;;;10.30;78.30;;;;;;5097225;28;20803;-49
2022/04/14 06:28:18;;;;;;;6.07;2.90;;;10.40;77.70;;;;;;5097676;28;20031;-47
2022/04/14 06:30:46;;;;;;;4.78;2.58;;;10.40;77.40;;;;;;5098278;28;20024;-48
2022/04/14 06:33:12;;;;;;;3.45;2.25;;;10.50;76.90;;;;;;5101427;28;20039;-50
2022/04/14 06:35:38;;;;;;;5.78;2.72;;;10.50;77.80;;;;;;5101505;28;20475;-49
2022/04/14 06:38:04;;;;;;;6.15;2.70;;;10.50;77.60;;;;;;5101535;28;20162;-50
2022/04/14 06:40:29;;;;;;;5.47;2.90;;;10.60;77.10;;;;;;5100124;28;20111;-52
2022/04/14 06:42:55;;;;;;;5.90;2.50;;;10.60;77.30;;;;;;5101580;28;20467;-48
2022/04/14 06:45:21;;;;;;;3.88;2.45;;;10.70;78.70;;;;;;5101320;28;20028;-49
2022/04/14 06:47:47;;;;;;;4.45;2.40;;;10.70;79.40;;;;;;5101546;28;20032;-48
2022/04/14 06:50:13;;;;;;;6.07;2.75;;;10.80;80.40;;;;;;5101243;28;20027;-48
2022/04/14 06:52:39;;;;;;;7.75;2.65;;;10.90;80.10;;;;;;5100935;28;20402;-50
2022/04/14 06:55:07;;;;;;;4.80;2.30;;;10.90;79.50;;;;;;5101284;28;20024;-48
2022/04/14 06:57:33;;;;;;;4.80;2.53;;;10.90;80.30;;;;;;5101320;28;20020;-47
2022/04/14 06:59:58;;;;;;;3.75;2.00;;;11.00;80.00;;;;;;5101051;28;20095;-49
2022/04/14 07:02:24;;;;;;;4.32;2.30;;;11.10;80.50;;;;;;5101187;28;20031;-50
2022/04/14 07:04:50;;;;;;;5.47;2.22;;;11.20;80.20;;;;;;5100727;28;20025;-50
2022/04/14 07:07:16;;;;;;;5.25;2.53;;;11.30;79.90;;;;;;5100922;28;20032;-48
2022/04/14 07:09:41;;;;;;;6.93;2.75;;;11.30;80.40;;;;;;5101160;28;20467;-48
2022/04/14 07:12:08;;;;;;;6.93;2.40;;;11.40;80.20;;;;;;5100695;28;20032;-49
2022/04/14 07:14:34;;;;;;;4.95;2.17;;;11.50;80.50;;;;;;5101026;28;20012;-53
2022/04/14 07:17:00;;;;;;;6.95;2.30;;;11.50;81.50;;;;;;5100748;28;20028;-51
2022/04/14 07:19:27;;;;;;;5.90;2.13;;;11.60;80.00;;;;;;5101219;28;20024;-49
2022/04/14 07:21:53;;;;;;;4.95;2.22;;;11.70;80.50;;;;;;5100876;28;20020;-48
2022/04/14 07:24:19;;;;;;;4.68;2.15;;;11.80;80.20;;;;;;5100616;28;20024;-50
2022/04/14 07:26:46;;;;;;;7.25;2.63;;;11.80;79.30;;;;;;5100006;28;20515;-51
2022/04/14 07:29:12;;;;;;;6.97;2.58;;;11.90;81.10;;;;;;5099253;28;20156;-49
2022/04/14 07:31:41;;;;;;;4.25;2.17;;;12.00;80.20;;;;;;5099614;28;20055;-48
2022/04/14 07:34:08;;;;;;;4.60;2.08;;;12.10;80.50;;;;;;5099149;28;20576;-49
2022/04/14 07:36:34;;;;;;;5.63;2.40;;;12.20;80.20;;;;;;5097709;28;20077;-47
2022/04/14 07:39:00;;;;;;;5.80;2.70;;;12.30;80.90;;;;;;5099058;28;20475;-50
2022/04/14 07:41:26;;;;;;;5.32;2.55;;;12.40;80.00;;;;;;5098837;28;20100;-49
2022/04/14 07:43:54;;;;;;;5.25;2.13;;;12.40;80.10;;;;;;5098820;28;20452;-50
2022/04/14 07:46:19;;;;;;;5.95;2.00;;;12.60;79.40;;;;;;5098971;28;20116;-53
2022/04/14 07:48:45;;;;;;;4.82;1.90;;;12.70;79.00;;;;;;5099122;28;20020;-48
2022/04/14 07:51:11;;;;;;;4.22;1.95;;;12.80;80.20;;;;;;5098686;28;20036;-51
2022/04/14 07:53:40;;;;;;;4.50;1.70;;;12.90;80.10;;;;;;5098467;28;20024;-52
2022/04/14 07:56:06;;;;;;;5.82;2.80;;;13.00;80.30;;;;;;5099458;28;20035;-51
2022/04/14 07:58:33;;;;;;;3.72;2.40;;;13.10;79.80;;;;;;5099002;28;20525;-49
2022/04/14 08:00:59;;;;;;;5.10;1.88;;;13.20;80.20;;;;;;5099063;28;20062;-50
2022/04/14 08:03:24;;;;;;;5.25;2.20;;;13.40;79.70;;;;;;5098956;28;20398;-48
2022/04/14 08:05:50;;;;;;;4.70;2.00;;;13.50;79.70;;;;;;5099178;28;20378;-51
2022/04/14 08:08:18;;;;;;;4.20;1.70;;;13.60;78.80;;;;;;5098711;28;20239;-49
2022/04/14 08:10:46;;;;;;;2.42;1.63;;;13.70;79.00;;;;;;5098857;28;20028;-48
2022/04/14 08:13:13;;;;;;;4.38;2.17;;;13.80;78.90;;;;;;5098444;28;20032;-48
2022/04/14 08:15:39;;;;;;;4.28;2.10;;;13.90;78.60;;;;;;5098768;28;20027;-50
2022/04/14 08:18:08;;;;;;;5.22;2.92;;;14.00;77.80;;;;;;5098517;28;20020;-52
2022/04/14 08:20:35;;;;;;;5.53;2.17;;;14.10;78.10;;;;;;5098710;28;20052;-50
2022/04/14 08:23:03;;;;;;;5.18;1.85;;;14.20;79.20;;;;;;5098325;28;20074;-51
2022/04/14 08:25:31;;;;;;;5.43;2.40;;;14.30;78.40;;;;;;5096412;28;20054;-51
2022/04/14 08:27:59;;;;;;;6.20;2.17;;;14.40;77.00;;;;;;5053512;28;1270776;-49
2022/04/14 08:30:28;;;;;;;5.75;2.40;;;14.60;76.60;;;;;;5099383;28;20115;-51
2022/04/14 08:32:55;;;;;;;5.22;2.20;;;14.70;76.20;;;;;;5098892;28;20038;-52
2022/04/14 08:35:21;;;;;;;5.78;2.47;;;14.80;76.10;;;;;;5097391;28;20028;-51
2022/04/14 08:37:48;;;;;;;9.30;2.40;;;14.90;76.20;;;;;;5097332;28;20030;-50
2022/04/14 08:40:16;;;;;;;4.50;2.28;;;15.00;74.60;;;;;;5097330;28;20050;-50
2022/04/14 08:42:51;;;;;;;6.80;2.88;;;15.10;74.50;;;;;;5097393;28;20016;-50
2022/04/14 08:45:21;;;;;;;5.70;2.40;;;15.10;74.50;;;;;;5097854;28;20058;-50
2022/04/14 08:47:50;;;;;;;6.18;2.80;;;15.20;73.50;;;;;;5098463;28;20020;-50
2022/04/14 08:50:16;;;;;;;5.93;2.95;;;15.30;73.00;;;;;;5099045;28;20407;-53
2022/04/14 08:52:42;;;;;;;7.13;2.70;;;15.40;73.00;;;;;;5099189;28;20023;-48
2022/04/14 08:55:14;;;;;;;7.18;2.97;;;15.50;73.00;;;;;;5098756;28;20028;-52
2022/04/14 08:57:43;;;;;;;7.88;2.90;;;15.60;73.00;;;;;;5098866;28;20056;-50
2022/04/14 09:00:16;;;;;;;7.13;3.05;;;15.80;72.70;;;;;;5097839;28;20062;-52
2022/04/14 09:02:50;;;;;;;7.47;3.65;;;15.90;71.20;;;;;;5099049;28;20077;-48
2022/04/14 09:05:17;;;;;;;7.60;3.50;;;16.00;70.00;;;;;;5098982;28;20036;-49
2022/04/14 09:07:52;;;;;;;7.28;3.70;;;16.20;70.80;;;;;;5098936;28;20126;-53
2022/04/14 09:10:20;;;;;;;7.07;2.80;;;16.40;68.90;;;;;;5098589;28;20032;-50
2022/04/14 09:12:49;;;;;;;6.38;2.80;;;16.60;70.50;;;;;;5098879;28;20480;-53
2022/04/14 09:15:16;;;;;;;5.70;3.25;;;16.80;70.50;;;;;;5098655;28;20518;-52
2022/04/14 09:17:42;;;;;;;7.43;2.97;;;17.20;69.30;;;;;;5098523;28;20051;-50
2022/04/14 09:20:39;;;;;;;6.85;3.40;;;17.60;66.30;;;;;;5098644;28;20063;-50
2022/04/14 09:23:20;;;;;;;8.00;3.70;;;17.90;66.70;;;;;;5094039;28;20059;-51
2022/04/14 09:26:06;;;;;;;6.65;3.60;;;18.30;66.20;;;;;;5098529;28;20087;-52
2022/04/14 09:28:32;;;;;;;5.93;3.58;;;18.50;64.60;;;;;;5098365;28;20055;-51
2022/04/14 09:31:10;;;;;;;7.20;4.00;;;18.70;63.90;;;;;;5098613;28;20039;-55
2022/04/14 09:33:44;;;;;;;7.25;3.60;;;18.90;63.30;;;;;;5098500;28;20028;-49
2022/04/14 09:36:18;;;;;;;7.03;3.50;;;19.10;62.30;;;;;;5098358;28;20079;-53
2022/04/14 09:39:07;;;;;;;7.73;3.80;;;19.40;62.50;;;;;;5098792;28;20024;-50
2022/04/14 09:41:41;;;;;;;7.45;3.70;;;19.60;61.90;;;;;;5098690;28;20032;-50
2022/04/14 09:44:08;;;;;;;;;;;19.90;62.90;;;;;;5098805;28;20031;-53
2022/04/14 09:46:35;;;;;;;6.35;3.25;;;20.20;62.50;;;;;;5098434;28;19904;-52
2022/04/14 09:49:05;;;;;;;6.43;3.45;;;20.70;62.00;;;;;;5098332;28;20028;-50
2022/04/14 09:51:32;;;;;;;7.85;3.35;;;21.20;62.40;;;;;;5098349;28;20080;-55
2022/04/14 09:54:11;;;;;;;7.15;3.38;;;21.80;61.10;;;;;;5098134;28;20032;-56
2022/04/14 09:56:42;;;;;;;7.53;3.65;;;22.10;61.60;;;;;;5097805;28;20064;-58
2022/04/14 09:59:11;;;;;;;7.10;4.18;;;22.40;61.10;;;;;;5097588;28;20027;-56
2022/04/14 10:01:37;;;;;;;9.27;4.20;;;22.60;60.00;;;;;;5097512;28;20051;-56
2022/04/14 10:04:04;;;;;;;7.88;5.20;;;22.80;57.70;;;;;;5097414;28;20071;-55
2022/04/14 10:06:30;;;;;;;8.27;4.70;;;22.70;55.00;;;;;;5097471;28;20028;-55
2022/04/14 10:08:57;;;;;;;8.65;4.72;;;22.80;57.10;;;;;;5097461;28;20024;-58
2022/04/14 10:11:30;;;;;;;8.27;4.80;;;22.90;60.50;;;;;;5097379;28;20484;-58
2022/04/14 10:14:13;;;;;;;9.93;4.97;;;23.20;57.50;;;;;;5097241;28;20115;-57
2022/04/14 10:16:40;;;;;;;7.60;4.55;;;23.70;59.60;;;;;;5097540;28;20071;-58
2022/04/14 10:19:09;;;;;;;8.02;4.68;;;24.00;56.20;;;;;;5097530;28;20130;-58
2022/04/14 10:21:37;;;;;;;9.35;4.95;;;24.40;57.50;;;;;;5097707;28;20039;-57
2022/04/14 10:24:05;;;;;;;9.15;4.50;;;24.40;50.20;;;;;;5097636;28;20056;-57
2022/04/14 10:26:34;;;;;;;8.32;4.45;;;24.20;52.50;;;;;;5097412;28;20052;-57
2022/04/14 10:29:01;;;;;;;8.95;4.55;;;24.20;49.00;;;;;;5097850;28;20065;-59
2022/04/14 10:31:28;;;;;;;8.18;4.47;;;24.40;50.40;;;;;;5097367;28;20040;-59
2022/04/14 10:33:54;;;;;;;7.65;4.53;;;24.50;50.00;;;;;;5097316;28;20115;-58
2022/04/14 10:36:20;;;;;;;10.90;5.53;;;24.60;49.10;;;;;;5097340;28;20513;-58
2022/04/14 10:38:49;;;;;;;7.38;4.50;;;24.60;50.40;;;;;;5096583;28;20102;-58
2022/04/14 10:41:21;;;;;;;10.70;5.18;;;24.50;47.70;;;;;;5096536;28;20020;-58
2022/04/14 10:43:47;;;;;;;7.45;5.10;;;24.60;49.30;;;;;;5095933;28;20099;-57
2022/04/14 10:46:17;;;;;;;8.60;4.95;;;24.60;46.30;;;;;;5097233;28;20061;-59
2022/04/14 10:48:46;;;;;;;9.73;5.28;;;24.60;49.30;;;;;;5097036;28;20395;-59
2022/04/14 10:51:29;;;;;;;9.43;5.18;;;24.60;47.90;;;;;;5097334;28;20020;-59
2022/04/14 10:53:57;;;;;;;8.57;5.38;;;24.50;50.40;;;;;;5097298;28;20495;-59
2022/04/14 10:56:41;;;;;;;7.25;4.68;;;24.70;47.60;;;;;;5095114;28;20479;-58
2022/04/14 10:59:16;;;;;;;8.00;4.63;;;24.90;48.60;;;;;;5096495;28;20035;-59
2022/04/14 11:01:50;;;;;;;10.02;4.90;;;25.10;49.50;;;;;;5096832;28;20448;-59
2022/04/14 11:04:50;;;;;;;8.75;4.65;;;25.20;49.40;;;;;;5096969;28;20035;-59
2022/04/14 11:07:22;;;;;;;8.15;4.68;;;25.40;45.40;;;;;;5096731;28;20020;-59
2022/04/14 11:09:57;;;;;;;7.72;4.78;;;25.40;44.00;;;;;;5096725;28;20357;-59
2022/04/14 11:12:41;;;;;;;10.63;5.30;;;25.60;45.70;;;;;;5096875;28;20364;-59
2022/04/14 11:15:08;;;;;;;;;;;25.40;44.40;;;;;;5097393;28;20464;-59
2022/04/14 11:17:37;;;;;;;11.48;5.15;;;25.30;47.30;;;;;;5099701;28;19995;-59
2022/04/14 11:20:22;;;;;;;10.23;5.80;;;25.40;45.50;;;;;;5100611;28;20107;-58
2022/04/14 11:23:03;;;;;;;8.02;5.55;;;25.50;43.60;;;;;;5100899;28;20057;-59
2022/04/14 11:25:41;;;;;;;10.32;5.50;;;26.10;43.20;;;;;;5100716;28;20024;-59
2022/04/14 11:28:26;;;;;;;10.52;5.28;;;26.40;45.50;;;;;;5100570;28;20036;-59
2022/04/14 11:31:01;;;;;;;10.35;5.57;;;26.40;46.20;;;;;;5100310;28;20391;-59
2022/04/14 11:33:30;;;;;;;7.30;5.07;;;26.70;47.30;;;;;;5100678;28;20048;-59
2022/04/14 11:36:20;;;;;;;8.60;5.55;;;27.20;45.30;;;;;;5100833;28;20077;-59
2022/04/14 11:39:03;;;;;;;9.68;5.28;;;27.50;45.60;;;;;;5100401;28;20530;-59
2022/04/14 11:41:46;;;;;;;8.77;6.00;;;27.60;41.50;;;;;;5100627;28;20074;-59
2022/04/14 11:44:17;;;;;;;10.43;6.10;;;27.50;39.50;;;;;;5100404;28;20032;-59
2022/04/14 11:46:51;;;;;;;10.13;6.32;;;27.60;44.80;;;;;;5099878;28;20028;-58
2022/04/14 11:49:22;;;;;;;9.00;6.45;;;27.20;42.90;;;;;;5100022;28;20036;-59
2022/04/14 11:51:49;;;;;;;10.68;6.57;;;26.80;42.40;;;;;;5100823;28;20031;-58
2022/04/14 11:54:30;;;;;;;10.20;7.07;;;26.60;41.80;;;;;;5100236;28;20016;-58
2022/04/14 11:57:06;;;;;;;11.90;6.80;;;26.30;42.00;;;;;;5100639;28;20107;-59
2022/04/14 11:59:43;;;;;;;11.98;6.22;;;26.40;43.20;;;;;;5099964;28;20035;-56
2022/04/14 12:02:15;;;;;;;11.77;7.80;;;26.30;44.10;;;;;;5100203;28;20024;-55
2022/04/14 12:04:45;;;;;;;11.38;6.53;;;26.50;42.80;;;;;;5099701;28;20486;-58
2022/04/14 12:07:11;;;;;;;10.82;7.78;;;26.90;44.90;;;;;;5099980;28;20058;-57
2022/04/14 12:09:38;;;;;;;9.85;7.40;;;27.10;43.00;;;;;;5100006;28;20062;-58
2022/04/14 12:12:16;;;;;;;13.13;8.02;;;27.40;42.70;;;;;;5100376;28;20028;-58
2022/04/14 12:14:42;;;;;;;11.57;8.57;;;27.00;39.60;;;;;;5100155;28;20476;-57
2022/04/14 12:17:08;;;;;;;13.43;9.05;;;27.30;43.10;;;;;;5099824;28;20020;-57
2022/04/14 12:19:45;;;;;;;11.95;7.68;;;27.40;39.10;;;;;;5099825;28;20043;-58
2022/04/14 12:22:11;;;;;;;10.35;6.85;;;27.70;42.50;;;;;;5099949;28;20024;-58
2022/04/14 12:24:38;;;;;;;9.13;6.55;;;27.90;40.90;;;;;;5099795;28;20031;-58
2022/04/14 12:27:04;;;;;;;10.13;6.55;;;27.70;39.40;;;;;;5099537;28;20040;-58
2022/04/14 12:29:30;;;;;;;11.32;7.47;;;27.90;41.30;;;;;;5098631;28;20024;-59
2022/04/14 12:32:13;;;;;;;10.35;7.75;;;27.90;41.30;;;;;;5099580;28;20035;-58
2022/04/14 12:34:42;;;;;;;13.83;8.00;;;27.60;39.40;;;;;;5099826;28;20023;-59
2022/04/14 12:37:13;;;;;;;10.75;6.80;;;27.60;41.80;;;;;;5099715;28;20024;-59
2022/04/14 12:39:54;;;;;;;10.82;7.03;;;27.70;41.50;;;;;;5100223;28;20036;-58
2022/04/14 12:42:19;;;;;;;10.80;6.80;;;27.70;39.90;;;;;;5099186;28;20032;-56
2022/04/14 12:44:45;;;;;;;11.23;7.07;;;27.90;41.20;;;;;;5099356;28;20027;-59
2022/04/14 12:47:12;;;;;;;11.23;7.00;;;27.60;37.40;;;;;;5099523;28;20380;-58
2022/04/14 12:49:38;;;;;;;8.57;5.95;;;28.00;40.90;;;;;;5099466;28;20052;-58